Time;durP1;ratioP1;P1;durP2;ratioP2;P2;SDS_P1;SDS_P2;PMS_P1;PMS_P2;Temp;Humidity;BMP_temperature;BMP_pressure;BME280_temperature;BME280_humidity;BME280_pressure;Samples;Min_cycle;Max_cycle;Signal;HPM_P1;HPM_P2
2023/04/25 00:02:03;;;;;;;4.45;2.95;;;12.60;64.00;;;;;;5052765;28;20082;-76
2023/04/25 00:04:29;;;;;;;2.83;2.30;;;12.60;64.00;;;;;;5052747;28;20538;-77
2023/04/25 00:06:56;;;;;;;4.57;2.22;;;12.60;63.90;;;;;;5051570;28;20063;-76
2023/04/25 00:09:22;;;;;;;4.32;2.00;;;12.60;63.90;;;;;;5052775;28;20110;-77
2023/04/25 00:11:48;;;;;;;2.38;1.92;;;12.70;63.80;;;;;;5052761;28;20524;-76
2023/04/25 00:14:14;;;;;;;4.20;2.50;;;12.70;63.80;;;;;;5052777;28;20033;-77
2023/04/25 00:16:43;;;;;;;3.50;2.40;;;12.70;63.60;;;;;;5053044;28;20025;-77
2023/04/25 00:19:09;;;;;;;4.07;2.35;;;12.70;63.50;;;;;;5052754;28;20032;-76
2023/04/25 00:21:37;;;;;;;4.95;2.58;;;12.70;63.40;;;;;;5052492;28;20390;-77
2023/04/25 00:24:03;;;;;;;3.22;2.20;;;12.70;63.30;;;;;;5052317;28;20037;-77
2023/04/25 00:26:29;;;;;;;3.05;1.95;;;12.70;63.10;;;;;;5054166;28;20127;-76
2023/04/25 00:28:55;;;;;;;4.38;2.15;;;12.60;62.90;;;;;;5055142;28;20052;-77
2023/04/25 00:31:21;;;;;;;3.15;2.33;;;12.70;62.80;;;;;;5056677;28;20048;-77
2023/04/25 00:33:47;;;;;;;2.45;2.25;;;12.60;62.70;;;;;;5063162;28;20020;-77
2023/04/25 00:36:13;;;;;;;2.70;2.22;;;12.60;62.70;;;;;;5076353;28;20028;-76
2023/04/25 00:38:40;;;;;;;10.65;2.78;;;12.60;62.70;;;;;;5076337;28;20032;-77
2023/04/25 00:41:09;;;;;;;5.78;2.50;;;12.50;62.60;;;;;;5075110;28;20028;-76
2023/04/25 00:43:37;;;;;;;3.38;2.17;;;12.50;62.90;;;;;;5076185;28;20024;-76
2023/04/25 00:46:03;;;;;;;3.53;2.20;;;12.50;62.80;;;;;;5076197;28;20024;-77
2023/04/25 00:48:29;;;;;;;4.00;2.30;;;12.50;62.80;;;;;;5076188;28;20020;-77
2023/04/25 00:50:58;;;;;;;3.92;2.70;;;12.40;62.80;;;;;;5076094;28;20069;-77
2023/04/25 00:53:26;;;;;;;2.20;1.80;;;12.40;62.90;;;;;;5075965;28;20024;-77
2023/04/25 00:55:53;;;;;;;2.40;2.15;;;12.40;62.90;;;;;;5076018;28;20060;-76
2023/04/25 00:58:19;;;;;;;2.42;2.00;;;12.40;62.90;;;;;;5057691;28;20104;-77
2023/04/25 01:00:47;;;;;;;2.30;2.05;;;12.40;63.00;;;;;;5055960;28;20592;-77
2023/04/25 01:03:15;;;;;;;2.92;2.08;;;12.30;63.20;;;;;;5054563;28;20116;-77
2023/04/25 01:05:42;;;;;;;2.67;2.10;;;12.30;63.20;;;;;;5056014;28;20092;-77
2023/04/25 01:08:09;;;;;;;2.13;1.92;;;12.30;63.20;;;;;;5055676;28;20017;-76
2023/04/25 01:10:35;;;;;;;3.33;1.88;;;12.30;63.10;;;;;;5061610;28;20370;-77
2023/04/25 01:13:01;;;;;;;3.20;2.55;;;12.20;63.00;;;;;;5075638;28;20024;-77
2023/04/25 01:15:27;;;;;;;3.47;2.28;;;12.20;63.10;;;;;;5074299;28;20068;-77
2023/04/25 01:17:55;;;;;;;2.65;2.15;;;12.20;63.20;;;;;;5075479;28;20465;-76
2023/04/25 01:20:24;;;;;;;5.80;2.42;;;12.10;63.20;;;;;;5075370;28;20017;-78
2023/04/25 01:22:54;;;;;;;4.15;2.17;;;12.10;63.10;;;;;;5073800;28;20020;-76
2023/04/25 01:25:21;;;;;;;3.80;2.20;;;12.10;63.20;;;;;;5075393;28;20024;-77
2023/04/25 01:27:47;;;;;;;5.55;2.85;;;12.10;63.20;;;;;;5074349;28;20027;-77
2023/04/25 01:30:13;;;;;;;2.33;1.95;;;12.10;63.10;;;;;;5057282;28;20027;-77
2023/04/25 01:32:40;;;;;;;3.35;2.50;;;12.10;63.10;;;;;;5055222;28;20096;-77
2023/04/25 01:35:09;;;;;;;5.57;2.15;;;12.10;63.00;;;;;;5054951;28;20466;-77
2023/04/25 01:37:40;;;;;;;4.05;2.03;;;12.10;63.10;;;;;;5054847;28;20025;-76
2023/04/25 01:40:08;;;;;;;3.80;2.30;;;12.10;63.20;;;;;;5055358;28;20025;-77
2023/04/25 01:42:35;;;;;;;2.80;2.10;;;12.10;63.20;;;;;;5054952;28;20471;-76
2023/04/25 01:45:01;;;;;;;3.60;2.22;;;12.00;63.10;;;;;;5056853;28;20535;-77
2023/04/25 01:47:27;;;;;;;2.78;2.13;;;12.00;63.10;;;;;;5074735;28;20067;-77
2023/04/25 01:49:53;;;;;;;3.40;1.98;;;12.00;63.20;;;;;;5074767;28;20048;-77
2023/04/25 01:52:19;;;;;;;2.22;1.80;;;12.00;63.30;;;;;;5074632;28;20027;-77
2023/04/25 01:54:45;;;;;;;3.80;2.13;;;11.90;63.30;;;;;;5073456;28;20461;-77
2023/04/25 01:57:12;;;;;;;3.38;1.70;;;11.90;63.50;;;;;;5066175;28;20170;-77
2023/04/25 01:59:38;;;;;;;2.35;1.65;;;11.90;63.60;;;;;;5070008;28;20052;-77
2023/04/25 02:02:04;;;;;;;4.00;2.28;;;11.90;63.70;;;;;;5054625;28;20032;-77
2023/04/25 02:04:30;;;;;;;2.88;1.88;;;12.00;63.70;;;;;;5069248;28;20508;-77
2023/04/25 02:06:56;;;;;;;3.78;2.05;;;12.00;63.50;;;;;;5073273;28;20017;-77
2023/04/25 02:09:22;;;;;;;3.38;2.05;;;12.00;63.20;;;;;;5074508;28;20096;-77
2023/04/25 02:11:48;;;;;;;3.10;2.00;;;12.00;63.70;;;;;;5073062;28;20024;-77
2023/04/25 02:14:14;;;;;;;4.57;2.28;;;12.00;62.80;;;;;;5074323;28;20395;-77
2023/04/25 02:16:40;;;;;;;3.00;1.90;;;12.00;62.60;;;;;;5074319;28;20032;-78
2023/04/25 02:19:06;;;;;;;3.65;2.13;;;12.10;62.40;;;;;;5074207;28;20052;-76
2023/04/25 02:21:32;;;;;;;2.88;1.98;;;12.10;62.30;;;;;;5074228;28;20036;-77
2023/04/25 02:23:58;;;;;;;2.00;1.80;;;12.10;62.30;;;;;;5072643;28;20072;-76
2023/04/25 02:26:24;;;;;;;1.77;1.50;;;12.10;62.40;;;;;;5072718;28;20436;-77
2023/04/25 02:28:51;;;;;;;2.03;1.70;;;12.10;62.50;;;;;;5074067;28;20482;-77
2023/04/25 02:31:17;;;;;;;2.42;1.80;;;12.10;62.60;;;;;;5074020;28;20495;-78
2023/04/25 02:33:43;;;;;;;3.00;2.17;;;12.00;62.50;;;;;;5072744;28;20119;-77
2023/04/25 02:36:09;;;;;;;2.05;1.85;;;12.00;62.60;;;;;;5072571;28;20059;-77
2023/04/25 02:38:34;;;;;;;3.53;2.08;;;12.00;62.70;;;;;;5073879;28;20056;-77
2023/04/25 02:41:00;;;;;;;3.22;2.00;;;12.00;62.60;;;;;;5073823;28;20027;-77
2023/04/25 02:43:26;;;;;;;4.10;2.30;;;11.90;62.60;;;;;;5073768;28;20025;-77
2023/04/25 02:45:52;;;;;;;4.60;2.28;;;11.90;62.60;;;;;;5073503;28;20025;-77
2023/04/25 02:48:18;;;;;;;1.88;1.58;;;11.90;62.80;;;;;;5072409;28;20028;-77
2023/04/25 02:50:43;;;;;;;4.93;2.40;;;11.90;62.90;;;;;;5072953;28;20020;-77
2023/04/25 02:53:09;;;;;;;3.03;2.45;;;11.80;63.10;;;;;;5073861;28;20023;-77
2023/04/25 02:55:35;;;;;;;3.70;1.90;;;11.80;63.50;;;;;;5073755;28;20012;-76
2023/04/25 02:58:01;;;;;;;2.22;1.70;;;11.70;63.60;;;;;;5055534;28;20025;-77
2023/04/25 03:00:27;;;;;;;2.83;2.13;;;11.70;63.60;;;;;;5052269;28;20021;-77
2023/04/25 03:02:53;;;;;;;2.70;2.13;;;11.70;63.80;;;;;;5053479;28;20540;-76
2023/04/25 03:05:19;;;;;;;3.65;2.10;;;11.60;63.70;;;;;;5053452;28;20478;-77
2023/04/25 03:07:45;;;;;;;3.00;1.90;;;11.60;63.70;;;;;;5052198;28;20021;-77
2023/04/25 03:10:12;;;;;;;2.60;2.22;;;11.60;63.80;;;;;;5053346;28;20025;-77
2023/04/25 03:12:38;;;;;;;1.70;1.60;;;11.50;63.90;;;;;;5053335;28;20074;-76
2023/04/25 03:15:04;;;;;;;3.88;2.40;;;11.50;63.90;;;;;;5053187;28;20028;-77
2023/04/25 03:17:30;;;;;;;2.83;2.03;;;11.40;64.00;;;;;;5052032;28;20031;-76
2023/04/25 03:19:55;;;;;;;3.17;2.45;;;11.40;64.10;;;;;;5051854;28;20024;-76
2023/04/25 03:22:22;;;;;;;2.30;1.80;;;11.40;64.20;;;;;;5052910;28;20067;-77
2023/04/25 03:24:47;;;;;;;4.10;1.95;;;11.30;64.30;;;;;;5052764;28;20052;-76
2023/04/25 03:27:13;;;;;;;5.97;2.10;;;11.30;64.30;;;;;;5053452;28;20461;-76
2023/04/25 03:29:40;;;;;;;3.83;2.17;;;11.30;64.50;;;;;;5053141;28;20029;-76
2023/04/25 03:32:06;;;;;;;2.17;1.70;;;11.20;64.50;;;;;;5053188;28;20017;-77
2023/04/25 03:34:32;;;;;;;7.97;1.90;;;11.20;64.60;;;;;;5052995;28;20101;-77
2023/04/25 03:36:57;;;;;;;2.40;1.90;;;11.20;64.70;;;;;;5053108;28;20032;-76
2023/04/25 03:39:23;;;;;;;2.08;1.88;;;11.20;64.80;;;;;;5053114;28;20017;-77
2023/04/25 03:41:49;;;;;;;2.75;2.10;;;11.10;64.80;;;;;;5053033;28;20409;-77
2023/04/25 03:44:15;;;;;;;2.85;1.85;;;11.10;64.90;;;;;;5052948;28;20413;-77
2023/04/25 03:46:40;;;;;;;2.72;2.00;;;11.10;65.00;;;;;;5053033;28;20390;-77
2023/04/25 03:49:06;;;;;;;3.65;2.40;;;11.10;65.10;;;;;;5053016;28;20096;-76
2023/04/25 03:51:32;;;;;;;4.32;2.08;;;11.00;65.50;;;;;;5051788;28;20116;-77
2023/04/25 03:53:58;;;;;;;2.58;2.10;;;11.00;65.20;;;;;;5052896;28;20029;-77
2023/04/25 03:56:24;;;;;;;5.13;1.88;;;11.00;65.30;;;;;;5055042;28;20140;-77
2023/04/25 03:58:49;;;;;;;8.68;2.30;;;11.00;65.50;;;;;;5072728;28;20029;-76
2023/04/25 04:01:15;;;;;;;6.93;2.50;;;11.00;65.60;;;;;;5075386;28;20071;-76
2023/04/25 04:03:41;;;;;;;5.18;2.58;;;11.00;65.70;;;;;;5076075;28;20021;-77
2023/04/25 04:06:08;;;;;;;3.42;2.30;;;11.00;65.70;;;;;;5076753;28;20081;-76
2023/04/25 04:08:34;;;;;;;7.15;2.40;;;11.00;65.70;;;;;;5075498;28;20025;-76
2023/04/25 04:11:00;;;;;;;6.75;2.85;;;11.00;65.70;;;;;;5077030;28;20424;-76
2023/04/25 04:13:27;;;;;;;3.80;2.42;;;11.00;65.60;;;;;;5076750;28;20027;-76
2023/04/25 04:15:53;;;;;;;4.20;2.58;;;11.00;65.60;;;;;;5076696;28;20036;-77
2023/04/25 04:18:19;;;;;;;3.47;2.28;;;11.00;65.50;;;;;;5076598;28;20378;-77
2023/04/25 04:20:45;;;;;;;3.70;2.53;;;11.00;65.50;;;;;;5076690;28;20554;-76
2023/04/25 04:23:11;;;;;;;4.47;2.67;;;11.00;65.50;;;;;;5074986;28;20080;-77
2023/04/25 04:25:37;;;;;;;4.03;2.00;;;11.00;65.70;;;;;;5076634;28;20031;-76
2023/04/25 04:28:03;;;;;;;3.78;2.80;;;11.00;65.70;;;;;;5059149;28;20025;-77
2023/04/25 04:30:29;;;;;;;4.40;2.53;;;11.10;65.80;;;;;;5056277;28;20071;-77
2023/04/25 04:32:56;;;;;;;3.22;1.95;;;11.10;65.80;;;;;;5056287;28;20048;-77
2023/04/25 04:35:27;;;;;;;3.13;2.17;;;11.20;65.90;;;;;;5056237;28;20108;-77
2023/04/25 04:37:54;;;;;;;4.35;2.45;;;11.30;65.80;;;;;;5055032;28;20036;-76
2023/04/25 04:40:21;;;;;;;4.82;2.42;;;11.40;65.70;;;;;;5066772;28;20036;-76
2023/04/25 04:42:50;;;;;;;3.63;2.50;;;11.40;65.40;;;;;;5076619;28;20035;-76
2023/04/25 04:45:16;;;;;;;5.47;2.40;;;11.50;65.10;;;;;;5076014;28;20428;-77
2023/04/25 04:47:41;;;;;;;3.90;2.55;;;11.60;65.00;;;;;;5074800;28;20024;-77
2023/04/25 04:50:09;;;;;;;5.22;2.35;;;11.60;64.80;;;;;;5074809;28;20021;-77
2023/04/25 04:52:38;;;;;;;3.17;2.45;;;11.60;64.60;;;;;;5075937;28;20020;-77
2023/04/25 04:55:05;;;;;;;7.38;2.70;;;11.70;64.50;;;;;;5075991;28;20450;-77
2023/04/25 04:57:32;;;;;;;3.25;2.55;;;11.70;64.30;;;;;;5063482;28;20025;-77
2023/04/25 04:59:59;;;;;;;3.67;2.20;;;11.80;64.00;;;;;;5055809;28;20028;-77
2023/04/25 05:02:25;;;;;;;3.33;2.30;;;11.90;63.80;;;;;;5055846;28;20021;-77
2023/04/25 05:04:51;;;;;;;3.20;2.60;;;11.90;63.60;;;;;;5055702;28;20028;-77
2023/04/25 05:07:18;;;;;;;2.90;2.50;;;11.90;63.40;;;;;;5055564;28;20523;-76
2023/04/25 05:09:43;;;;;;;2.58;2.13;;;12.00;63.30;;;;;;5055581;28;20021;-77
2023/04/25 05:12:09;;;;;;;9.82;2.40;;;12.00;63.30;;;;;;5053770;28;20087;-77
2023/04/25 05:14:35;;;;;;;3.63;2.08;;;12.10;63.40;;;;;;5054278;28;20043;-77
2023/04/25 05:17:03;;;;;;;6.15;2.72;;;12.10;63.50;;;;;;5055558;28;20037;-77
2023/04/25 05:19:29;;;;;;;4.68;2.15;;;12.20;63.30;;;;;;5053808;28;20025;-77
2023/04/25 05:21:55;;;;;;;4.38;2.53;;;12.30;62.90;;;;;;5055149;28;20031;-76
2023/04/25 05:24:20;;;;;;;5.53;2.55;;;12.30;62.50;;;;;;5054937;28;20044;-76
2023/04/25 05:26:46;;;;;;;5.22;2.45;;;12.40;62.10;;;;;;5055151;28;20021;-77
2023/04/25 05:29:12;;;;;;;6.45;2.35;;;12.50;61.90;;;;;;5053609;28;20033;-77
2023/04/25 05:31:38;;;;;;;3.80;2.53;;;12.50;61.70;;;;;;5055788;28;20020;-77
2023/04/25 05:34:03;;;;;;;3.78;2.10;;;12.60;61.80;;;;;;5053961;28;20025;-77
2023/04/25 05:36:30;;;;;;;3.42;2.05;;;12.70;62.00;;;;;;5053553;28;20076;-77
2023/04/25 05:38:56;;;;;;;4.63;2.40;;;12.80;61.90;;;;;;5052728;28;20471;-77
2023/04/25 05:41:22;;;;;;;5.13;2.35;;;12.80;61.70;;;;;;5053309;28;20037;-77
2023/04/25 05:43:49;;;;;;;4.85;2.50;;;13.00;61.70;;;;;;5052984;28;20025;-77
2023/04/25 05:46:16;;;;;;;3.05;2.00;;;13.10;61.20;;;;;;5058623;28;20017;-76
2023/04/25 05:48:42;;;;;;;3.17;2.15;;;13.20;60.30;;;;;;5055130;28;20374;-76
2023/04/25 05:51:08;;;;;;;3.83;2.00;;;13.30;60.40;;;;;;5054873;28;20017;-77
2023/04/25 05:53:34;;;;;;;2.85;1.80;;;13.40;60.00;;;;;;5053644;28;20120;-77
2023/04/25 05:56:00;;;;;;;6.07;2.03;;;13.40;59.80;;;;;;5054799;28;20025;-77
2023/04/25 05:58:26;;;;;;;8.93;2.10;;;13.40;59.70;;;;;;5053261;28;20116;-77
2023/04/25 06:00:52;;;;;;;4.45;2.00;;;13.40;59.70;;;;;;5054637;28;20100;-77
2023/04/25 06:03:18;;;;;;;9.15;2.75;;;13.50;59.70;;;;;;5060577;28;20124;-76
2023/04/25 06:05:44;;;;;;;6.43;2.63;;;13.50;60.00;;;;;;5073962;28;20028;-77
2023/04/25 06:08:10;;;;;;;5.65;2.00;;;13.50;60.30;;;;;;5072865;28;20047;-76
2023/04/25 06:10:36;;;;;;;6.25;2.40;;;13.60;60.30;;;;;;5070988;28;20482;-77
2023/04/25 06:13:03;;;;;;;4.47;1.92;;;13.70;59.70;;;;;;5054400;28;20389;-78
2023/04/25 06:15:29;;;;;;;2.80;2.13;;;13.70;59.80;;;;;;5054046;28;20017;-76
2023/04/25 06:17:55;;;;;;;3.17;2.10;;;13.80;59.70;;;;;;5054156;28;20025;-77
2023/04/25 06:20:23;;;;;;;4.80;2.38;;;13.80;59.00;;;;;;5054072;28;20021;-77
2023/04/25 06:22:51;;;;;;;3.42;2.17;;;13.80;58.40;;;;;;5071165;28;20377;-77
2023/04/25 06:25:17;;;;;;;5.97;2.30;;;13.80;58.60;;;;;;5072758;28;20107;-77
2023/04/25 06:27:43;;;;;;;3.63;2.20;;;13.80;58.50;;;;;;5057844;28;20104;-77
2023/04/25 06:30:11;;;;;;;2.08;1.67;;;13.90;58.30;;;;;;5053512;28;20065;-77
2023/04/25 06:32:37;;;;;;;4.68;2.28;;;13.90;58.20;;;;;;5053666;28;20047;-77
2023/04/25 06:35:03;;;;;;;6.13;2.25;;;13.80;58.30;;;;;;5052483;28;20558;-77
2023/04/25 06:37:29;;;;;;;9.68;2.17;;;13.90;58.10;;;;;;5053775;28;20025;-77
2023/04/25 06:39:55;;;;;;;3.15;2.20;;;13.90;58.20;;;;;;5054168;28;20109;-76
2023/04/25 06:42:20;;;;;;;3.63;1.92;;;14.00;58.10;;;;;;5053341;28;20539;-77
2023/04/25 06:44:46;;;;;;;3.05;1.92;;;14.00;57.80;;;;;;5069017;28;20082;-77
2023/04/25 06:47:12;;;;;;;10.25;2.42;;;14.00;57.70;;;;;;5052546;28;20024;-77
2023/04/25 06:49:37;;;;;;;5.90;2.10;;;14.00;57.90;;;;;;5053979;28;20029;-77
2023/04/25 06:52:03;;;;;;;3.40;2.10;;;14.10;57.60;;;;;;5052455;28;20028;-77
2023/04/25 06:54:29;;;;;;;5.68;2.38;;;14.10;57.40;;;;;;5071479;28;20035;-76
2023/04/25 06:56:56;;;;;;;4.22;2.40;;;14.10;57.30;;;;;;5071893;28;20021;-77
2023/04/25 06:59:22;;;;;;;4.47;2.10;;;14.20;57.10;;;;;;5073617;28;20120;-77
2023/04/25 07:01:47;;;;;;;6.45;2.40;;;14.20;57.10;;;;;;5073544;28;20486;-77
2023/04/25 07:04:13;;;;;;;10.60;2.42;;;14.20;56.70;;;;;;5073471;28;20099;-77
2023/04/25 07:06:42;;;;;;;3.80;2.17;;;14.20;56.80;;;;;;5073504;28;20020;-76
2023/04/25 07:09:11;;;;;;;9.18;2.00;;;14.30;56.70;;;;;;5072365;28;20029;-77
2023/04/25 07:11:37;;;;;;;7.28;2.30;;;14.30;56.70;;;;;;5065580;28;20540;-77
2023/04/25 07:14:03;;;;;;;3.95;2.72;;;14.30;57.00;;;;;;5053371;28;20029;-77
2023/04/25 07:16:29;;;;;;;7.28;2.60;;;14.40;56.90;;;;;;5053187;28;20055;-77
2023/04/25 07:18:55;;;;;;;4.90;2.35;;;14.40;56.60;;;;;;5073650;28;20382;-76
2023/04/25 07:21:21;;;;;;;6.25;2.67;;;14.50;56.70;;;;;;5073523;28;20104;-78
2023/04/25 07:23:47;;;;;;;5.65;2.60;;;14.50;56.30;;;;;;5069604;28;20123;-77
2023/04/25 07:26:13;;;;;;;5.57;2.85;;;14.50;56.20;;;;;;5068891;28;20312;-77
2023/04/25 07:28:39;;;;;;;8.32;2.80;;;14.60;56.10;;;;;;5053354;28;20021;-76
2023/04/25 07:31:05;;;;;;;11.48;2.35;;;14.60;55.80;;;;;;5053064;28;20023;-76
2023/04/25 07:33:31;;;;;;;4.75;3.28;;;14.70;55.70;;;;;;5053067;28;20021;-76
2023/04/25 07:35:56;;;;;;;6.95;3.60;;;14.70;56.10;;;;;;5062061;28;20133;-76
2023/04/25 07:38:22;;;;;;;3.50;2.65;;;14.80;56.20;;;;;;5073161;28;20103;-76
2023/04/25 07:40:49;;;;;;;3.58;2.40;;;14.80;56.00;;;;;;5073417;28;20020;-76
2023/04/25 07:43:16;;;;;;;3.50;2.33;;;14.90;56.00;;;;;;5072938;28;20036;-76
2023/04/25 07:45:43;;;;;;;4.72;3.00;;;14.90;55.60;;;;;;5073186;28;20107;-76
2023/04/25 07:48:09;;;;;;;5.05;3.10;;;15.00;55.50;;;;;;5071170;28;20032;-76
2023/04/25 07:50:35;;;;;;;4.68;2.53;;;15.10;55.50;;;;;;5073024;28;20086;-76
2023/04/25 07:53:01;;;;;;;14.25;3.15;;;15.20;54.60;;;;;;5071753;28;20102;-76
2023/04/25 07:55:27;;;;;;;3.20;2.20;;;15.30;55.10;;;;;;5057049;28;20083;-76
2023/04/25 07:57:53;;;;;;;6.00;2.60;;;15.40;54.50;;;;;;5053423;28;20062;-76
2023/04/25 08:00:19;;;;;;;3.47;2.28;;;15.60;54.80;;;;;;5068744;28;20032;-76
2023/04/25 08:02:45;;;;;;;5.00;2.80;;;15.70;54.20;;;;;;5053101;28;20021;-75
2023/04/25 08:05:14;;;;;;;4.18;2.55;;;15.90;54.10;;;;;;5053939;28;20032;-75
2023/04/25 08:07:41;;;;;;;6.28;2.85;;;16.00;53.30;;;;;;5073595;28;20024;-76
2023/04/25 08:10:07;;;;;;;4.22;2.47;;;16.10;53.00;;;;;;5067962;28;20020;-75
2023/04/25 08:12:33;;;;;;;5.00;2.70;;;16.20;52.90;;;;;;5073218;28;20097;-77
2023/04/25 08:14:59;;;;;;;5.13;3.00;;;16.20;52.50;;;;;;5071906;28;20052;-76
2023/04/25 08:17:25;;;;;;;4.00;2.63;;;16.20;52.00;;;;;;5073510;28;20057;-76
2023/04/25 08:19:50;;;;;;;3.90;2.50;;;16.20;52.20;;;;;;5064717;28;20025;-75
2023/04/25 08:22:16;;;;;;;4.53;2.63;;;16.20;52.30;;;;;;5065033;28;20051;-76
2023/04/25 08:24:43;;;;;;;11.23;3.22;;;16.20;51.80;;;;;;5069621;28;20055;-76
2023/04/25 08:27:09;;;;;;;4.28;2.38;;;16.20;51.80;;;;;;5053604;28;20021;-76
2023/04/25 08:29:35;;;;;;;5.40;2.42;;;16.20;51.20;;;;;;5052588;28;20017;-77
2023/04/25 08:32:01;;;;;;;9.32;2.58;;;16.20;51.70;;;;;;5057636;28;20163;-76
2023/04/25 08:34:27;;;;;;;3.47;2.35;;;16.20;51.10;;;;;;5072760;28;20103;-76
2023/04/25 08:36:52;;;;;;;2.90;2.25;;;16.20;51.40;;;;;;5071536;28;20024;-76
2023/04/25 08:39:18;;;;;;;7.30;2.30;;;16.30;51.20;;;;;;5072572;28;20025;-76
2023/04/25 08:41:45;;;;;;;7.13;2.40;;;16.30;50.80;;;;;;5059294;28;20032;-76
2023/04/25 08:44:11;;;;;;;3.00;2.05;;;16.30;50.20;;;;;;5052476;28;20021;-76
2023/04/25 08:46:40;;;;;;;3.80;1.95;;;16.30;50.50;;;;;;5051260;28;20074;-76
2023/04/25 08:49:07;;;;;;;3.92;1.95;;;16.40;50.20;;;;;;5057544;28;20024;-76
2023/04/25 08:51:34;;;;;;;4.05;2.17;;;16.60;50.50;;;;;;5076059;28;20021;-76
2023/04/25 08:54:11;;;;;;;5.35;2.65;;;16.70;50.10;;;;;;5076012;28;20486;-76
2023/04/25 08:56:45;;;;;;;5.80;2.40;;;16.90;50.20;;;;;;5076058;28;20024;-75
2023/04/25 08:59:12;;;;;;;5.70;2.30;;;17.10;50.10;;;;;;5059678;28;20029;-76
2023/04/25 09:01:38;;;;;;;3.97;2.08;;;17.30;49.80;;;;;;5068333;28;20103;-76
2023/04/25 09:04:04;;;;;;;4.85;2.20;;;17.40;49.50;;;;;;5063442;28;20116;-77
2023/04/25 09:06:34;;;;;;;5.10;2.60;;;17.60;49.10;;;;;;5075912;28;20099;-76
2023/04/25 09:09:05;;;;;;;5.05;2.17;;;17.60;48.50;;;;;;5060073;28;20021;-77
2023/04/25 09:11:32;;;;;;;6.13;2.67;;;17.70;48.00;;;;;;5058314;28;20504;-77
2023/04/25 09:14:15;;;;;;;5.20;2.20;;;17.70;48.20;;;;;;5065010;28;20035;-75
2023/04/25 09:16:56;;;;;;;4.22;2.38;;;17.70;47.70;;;;;;5054454;28;20423;-76
2023/04/25 09:19:30;;;;;;;11.35;2.17;;;17.60;47.90;;;;;;5055530;28;20056;-77
2023/04/25 09:21:58;;;;;;;7.25;2.53;;;17.60;47.50;;;;;;5060327;28;20115;-74
2023/04/25 09:24:39;;;;;;;4.40;2.20;;;17.60;47.50;;;;;;5075189;28;20397;-74
2023/04/25 09:27:18;;;;;;;2.58;1.70;;;17.50;47.90;;;;;;5074201;28;20074;-74
2023/04/25 09:29:44;;;;;;;5.03;1.88;;;17.50;47.80;;;;;;5055529;28;20052;-74
2023/04/25 09:32:22;;;;;;;3.88;2.10;;;17.50;47.20;;;;;;5054232;28;20056;-74
2023/04/25 09:34:55;;;;;;;3.83;2.20;;;17.50;47.00;;;;;;5055611;28;20025;-74
2023/04/25 09:37:22;;;;;;;;;;;17.50;46.40;;;;;;5058855;28;20413;-74
2023/04/25 09:39:50;;;;;;;3.28;2.05;;;17.60;48.40;;;;;;5073443;28;19996;-74
2023/04/25 09:42:17;;;;;;;3.42;1.83;;;17.60;46.70;;;;;;5065097;28;20116;-74
2023/04/25 09:44:44;;;;;;;5.28;2.03;;;17.60;47.00;;;;;;5053688;28;20029;-77
2023/04/25 09:47:12;;;;;;;5.65;2.17;;;17.60;46.90;;;;;;5055227;28;20028;-76
2023/04/25 09:49:42;;;;;;;4.00;2.03;;;17.50;46.70;;;;;;5063246;28;20021;-77
2023/04/25 09:52:12;;;;;;;3.38;1.98;;;17.50;46.60;;;;;;5055205;28;20021;-77
2023/04/25 09:54:38;;;;;;;6.13;2.30;;;17.50;46.40;;;;;;5055068;28;20021;-76
2023/04/25 09:57:22;;;;;;;2.25;1.80;;;17.60;46.30;;;;;;5069913;28;20023;-74
2023/04/25 09:59:52;;;;;;;;;;;17.70;46.60;;;;;;5055001;28;20029;-74
2023/04/25 10:02:24;;;;;;;4.78;2.10;;;17.70;47.70;;;;;;5053823;28;19904;-75
2023/04/25 10:04:54;;;;;;;4.07;1.67;;;17.80;46.30;;;;;;5056719;28;20024;-75
2023/04/25 10:07:22;;;;;;;4.10;1.95;;;17.90;46.20;;;;;;5070785;28;20023;-76
2023/04/25 10:09:50;;;;;;;7.78;2.33;;;18.00;46.40;;;;;;5073139;28;20528;-78
2023/04/25 10:12:16;;;;;;;3.33;1.88;;;18.10;45.40;;;;;;5067667;28;20151;-75
2023/04/25 10:14:43;;;;;;;3.55;1.85;;;18.20;45.60;;;;;;5059218;28;20138;-76
2023/04/25 10:17:13;;;;;;;3.10;2.00;;;18.20;46.10;;;;;;5054280;28;20131;-76
2023/04/25 10:19:39;;;;;;;3.13;1.90;;;18.30;46.30;;;;;;5062390;28;20490;-77
2023/04/25 10:22:15;;;;;;;3.33;1.83;;;18.40;45.90;;;;;;5056065;28;21218;-75
2023/04/25 10:24:44;;;;;;;2.80;1.20;;;18.50;45.20;;;;;;5067549;28;20048;-76
2023/04/25 10:27:10;;;;;;;2.95;1.10;;;18.50;44.10;;;;;;5071711;28;20056;-75
2023/04/25 10:29:36;;;;;;;1.35;0.60;;;18.50;43.10;;;;;;5056873;28;20031;-75
2023/04/25 10:32:02;;;;;;;1.35;0.70;;;18.40;42.60;;;;;;5054159;28;20096;-75
2023/04/25 10:34:46;;;;;;;0.63;0.43;;;18.40;42.70;;;;;;5073681;28;20025;-75
2023/04/25 10:37:12;;;;;;;;;;;18.40;43.40;;;;;;5074135;28;20021;-75
2023/04/25 10:39:41;;;;;;;1.52;0.80;;;18.40;44.60;;;;;;5072051;28;19915;-77
2023/04/25 10:42:07;;;;;;;1.98;0.90;;;18.40;42.60;;;;;;5073777;28;20103;-78
2023/04/25 10:44:34;;;;;;;3.28;1.02;;;18.40;42.30;;;;;;5073628;28;20052;-77
2023/04/25 10:47:02;;;;;;;0.95;0.85;;;18.30;40.80;;;;;;5071808;28;20062;-74
2023/04/25 10:49:36;;;;;;;1.55;1.10;;;18.30;42.00;;;;;;5059840;28;20108;-74
2023/04/25 10:52:25;;;;;;;4.07;1.20;;;18.20;42.30;;;;;;5053787;28;20028;-75
2023/04/25 10:54:56;;;;;;;1.77;1.15;;;18.30;42.70;;;;;;5053600;28;20390;-75
2023/04/25 10:57:43;;;;;;;1.45;1.20;;;18.30;43.00;;;;;;5052440;28;20394;-75
2023/04/25 11:00:21;;;;;;;3.42;1.27;;;18.30;42.20;;;;;;5053917;28;20029;-75
2023/04/25 11:02:58;;;;;;;2.10;1.70;;;18.40;41.30;;;;;;5062126;28;20043;-82
2023/04/25 11:05:32;;;;;;;1.77;1.20;;;18.40;42.30;;;;;;5065300;28;20505;-75
2023/04/25 11:07:59;;;;;;;1.73;1.05;;;18.40;43.10;;;;;;5073848;28;20025;-75
2023/04/25 11:10:32;;;;;;;2.65;1.20;;;18.40;44.50;;;;;;5073080;28;20028;-77
2023/04/25 11:12:59;;;;;;;1.95;1.33;;;18.40;49.00;;;;;;5073483;28;20021;-77
2023/04/25 11:15:26;;;;;;;2.20;1.30;;;18.30;49.50;;;;;;5072253;28;20035;-76
2023/04/25 11:17:52;;;;;;;2.15;1.25;;;18.10;49.50;;;;;;5069069;28;20109;-77
2023/04/25 11:20:18;;;;;;;2.50;1.10;;;18.00;49.30;;;;;;5053375;28;20375;-77
2023/04/25 11:22:46;;;;;;;2.83;1.02;;;17.80;49.50;;;;;;5053047;28;20038;-76
2023/04/25 11:25:14;;;;;;;1.13;0.73;;;17.60;49.20;;;;;;5053182;28;20402;-77
2023/04/25 11:28:02;;;;;;;2.80;0.88;;;17.50;50.00;;;;;;5052053;28;20032;-76
2023/04/25 11:30:30;;;;;;;6.32;1.10;;;17.30;51.30;;;;;;5053660;28;20027;-77
2023/04/25 11:32:56;;;;;;;3.08;1.00;;;17.20;52.10;;;;;;5051857;28;20386;-77
2023/04/25 11:35:22;;;;;;;2.00;1.00;;;17.10;52.30;;;;;;5064026;28;20037;-77
2023/04/25 11:37:49;;;;;;;1.50;0.85;;;17.00;51.50;;;;;;5072404;28;20032;-77
2023/04/25 11:40:15;;;;;;;1.30;0.80;;;17.00;51.70;;;;;;5072975;28;20024;-76
2023/04/25 11:42:46;;;;;;;2.90;0.80;;;16.90;51.90;;;;;;5069173;28;20079;-76
2023/04/25 11:45:12;;;;;;;2.88;0.98;;;16.90;52.10;;;;;;5069330;28;20051;-77
2023/04/25 11:47:38;;;;;;;1.25;0.90;;;16.90;51.20;;;;;;5073067;28;20020;-76
2023/04/25 11:50:07;;;;;;;3.15;1.00;;;16.80;50.80;;;;;;5071831;28;20381;-78
2023/04/25 11:52:44;;;;;;;2.38;0.80;;;16.80;50.50;;;;;;5073089;28;20017;-76
2023/04/25 11:55:14;;;;;;;1.25;0.80;;;16.70;50.20;;;;;;5071593;28;20025;-76
2023/04/25 11:57:41;;;;;;;1.20;0.65;;;16.70;49.40;;;;;;5051444;28;20056;-76
2023/04/25 12:00:20;;;;;;;2.92;1.00;;;16.70;49.20;;;;;;5052995;28;20032;-76
2023/04/25 12:02:51;;;;;;;1.85;0.70;;;16.70;48.60;;;;;;5052794;28;20028;-75
2023/04/25 12:05:16;;;;;;;1.67;1.02;;;16.80;48.80;;;;;;5051201;28;20029;-75
2023/04/25 12:07:42;;;;;;;2.28;0.95;;;16.80;47.80;;;;;;5053015;28;20406;-75
2023/04/25 12:10:13;;;;;;;6.30;1.10;;;16.80;47.90;;;;;;5052691;28;20017;-75
2023/04/25 12:12:42;;;;;;;2.60;1.00;;;16.80;47.90;;;;;;5051290;28;20104;-75
2023/04/25 12:15:15;;;;;;;1.55;0.82;;;16.80;47.40;;;;;;5052424;28;20028;-75
2023/04/25 12:17:41;;;;;;;2.08;1.17;;;16.80;47.60;;;;;;5052589;28;20026;-75
2023/04/25 12:20:13;;;;;;;3.72;1.15;;;16.80;47.70;;;;;;5051228;28;20387;-75
2023/04/25 12:22:47;;;;;;;5.10;1.70;;;16.80;47.30;;;;;;5054494;28;20383;-76
2023/04/25 12:25:14;;;;;;;3.53;1.38;;;16.90;47.50;;;;;;5056292;28;20128;-76
2023/04/25 12:27:43;;;;;;;1.85;1.35;;;16.90;47.40;;;;;;5056052;28;20121;-75
2023/04/25 12:30:10;;;;;;;3.70;1.15;;;16.90;47.40;;;;;;5056056;28;20014;-76
2023/04/25 12:32:37;;;;;;;2.55;1.42;;;17.10;48.10;;;;;;5058147;28;20421;-76
2023/04/25 12:35:05;;;;;;;3.75;1.50;;;17.20;47.30;;;;;;5058832;28;20025;-74
2023/04/25 12:37:31;;;;;;;2.67;1.42;;;17.40;47.40;;;;;;5075878;28;20040;-76
2023/04/25 12:39:56;;;;;;;6.93;1.20;;;17.50;46.80;;;;;;5075854;28;20474;-74
2023/04/25 12:42:22;;;;;;;1.05;0.90;;;17.60;45.90;;;;;;5076056;28;20035;-75
2023/04/25 12:44:48;;;;;;;3.03;0.82;;;17.60;45.40;;;;;;5075769;28;20031;-75
2023/04/25 12:47:14;;;;;;;2.85;0.80;;;17.60;49.50;;;;;;5075981;28;20089;-76
2023/04/25 12:49:39;;;;;;;3.95;1.17;;;17.50;50.00;;;;;;5075786;28;20016;-81